createdAt,value
2018-08-20T00:00:58.830Z,17.50
2018-08-20T00:01:51.083Z,17.54
2018-08-20T00:02:51.106Z,17.52
2018-08-20T00:03:58.862Z,17.54
2018-08-20T00:04:51.068Z,17.50
2018-08-20T00:05:51.041Z,17.50
2018-08-20T00:07:00.420Z,17.46
2018-08-20T00:07:51.019Z,17.59
2018-08-20T00:08:51.060Z,17.68
2018-08-20T00:10:00.472Z,17.47
2018-08-20T00:10:50.985Z,17.60
2018-08-20T00:11:50.998Z,17.60
2018-08-20T00:12:58.997Z,17.56
2018-08-20T00:13:50.957Z,17.63
2018-08-20T00:14:50.969Z,17.66
2018-08-20T00:15:58.527Z,17.65
2018-08-20T00:16:50.949Z,17.72
2018-08-20T00:17:50.909Z,17.63
2018-08-20T00:19:00.085Z,17.73
2018-08-20T00:19:50.925Z,17.71
2018-08-20T00:20:50.871Z,17.79
2018-08-20T00:21:50.863Z,17.75
2018-08-20T00:22:50.851Z,17.80
2018-08-20T00:23:50.881Z,17.79
2018-08-20T00:24:50.823Z,17.86
2018-08-20T00:25:50.859Z,17.82
2018-08-20T00:26:50.807Z,17.86
2018-08-20T00:27:50.830Z,17.91
2018-08-20T00:28:50.789Z,17.94
2018-08-20T00:29:50.825Z,17.93
2018-08-20T00:30:50.757Z,17.93
2018-08-20T00:31:50.753Z,17.95
2018-08-20T00:32:50.735Z,18.00
2018-08-20T00:33:50.725Z,18.08
2018-08-20T00:34:50.761Z,18.09
2018-08-20T00:35:50.701Z,18.08
2018-08-20T00:36:50.736Z,18.03
2018-08-20T00:37:50.681Z,18.05
2018-08-20T00:38:50.681Z,18.09
2018-08-20T00:39:50.661Z,18.02
2018-08-20T00:40:50.658Z,18.09
2018-08-20T00:41:50.682Z,18.16
2018-08-20T00:42:50.610Z,18.18
2018-08-20T00:43:50.605Z,18.19
2018-08-20T00:44:50.591Z,18.27
2018-08-20T00:45:50.576Z,18.18
2018-08-20T00:46:50.623Z,18.18
2018-08-20T00:47:50.556Z,18.19
2018-08-20T00:48:50.547Z,18.26
2018-08-20T00:49:50.540Z,18.27
2018-08-20T00:50:50.524Z,18.28
2018-08-20T00:51:50.554Z,18.31
2018-08-20T00:52:50.535Z,18.30
2018-08-20T00:53:50.493Z,18.42
2018-08-20T00:54:50.507Z,18.41
2018-08-20T00:55:50.472Z,18.39
2018-08-20T00:56:50.465Z,18.49
2018-08-20T00:57:50.489Z,18.45
2018-08-20T00:58:50.441Z,18.60
2018-08-20T00:59:50.436Z,18.52
2018-08-20T01:00:50.427Z,18.49
2018-08-20T01:01:50.412Z,18.60
2018-08-20T01:02:50.440Z,18.60
2018-08-20T01:03:50.397Z,18.63
2018-08-20T01:04:50.419Z,18.58
2018-08-20T01:05:50.363Z,18.64
2018-08-20T01:06:50.364Z,18.66
2018-08-20T01:07:50.389Z,18.66
2018-08-20T01:08:50.344Z,18.70
2018-08-20T01:09:50.353Z,18.78
2018-08-20T01:10:50.305Z,18.74
2018-08-20T01:11:50.292Z,18.70
2018-08-20T01:12:50.323Z,18.71
2018-08-20T01:13:50.306Z,18.76
2018-08-20T01:14:50.258Z,18.76
2018-08-20T01:15:50.276Z,18.68
2018-08-20T01:16:50.224Z,18.70
2018-08-20T01:17:50.219Z,18.58
2018-08-20T01:18:59.612Z,18.49
2018-08-20T01:19:50.238Z,18.58
2018-08-20T01:20:50.230Z,18.55
2018-08-20T01:21:58.124Z,18.55
2018-08-20T01:22:50.171Z,18.45
2018-08-20T01:23:50.155Z,18.49
2018-08-20T01:24:58.168Z,18.49
2018-08-20T01:25:50.163Z,18.42
2018-08-20T01:26:50.118Z,18.39
2018-08-20T01:27:50.112Z,18.42
2018-08-20T01:28:50.090Z,18.31
2018-08-20T01:29:50.090Z,18.31
2018-08-20T01:30:59.226Z,18.37
2018-08-20T01:31:50.065Z,18.30
2018-08-20T01:32:50.055Z,18.24
2018-08-20T01:33:50.038Z,18.19
2018-08-20T01:34:50.079Z,18.23
2018-08-20T01:35:50.016Z,18.16
2018-08-20T01:36:57.732Z,18.21
2018-08-20T01:37:50.011Z,18.16
2018-08-20T01:38:49.989Z,18.06
2018-08-20T01:39:50.016Z,18.05
2018-08-20T01:40:50.004Z,18.03
2018-08-20T01:41:49.990Z,17.87
2018-08-20T01:42:49.953Z,17.94
2018-08-20T01:43:49.947Z,17.94
2018-08-20T01:44:49.931Z,17.90
2018-08-20T01:45:49.913Z,17.97
2018-08-20T01:46:49.927Z,17.78
2018-08-20T01:47:49.892Z,17.84
2018-08-20T01:48:49.878Z,17.82
2018-08-20T01:49:49.868Z,17.75
2018-08-20T01:50:49.858Z,17.69
2018-08-20T01:51:49.866Z,17.72
2018-08-20T01:52:49.842Z,17.69
2018-08-20T01:53:49.816Z,17.59
2018-08-20T01:54:49.814Z,17.66
2018-08-20T01:55:49.832Z,17.69
2018-08-20T01:56:49.791Z,17.60
2018-08-20T01:57:49.769Z,17.68
2018-08-20T01:58:49.770Z,17.63
2018-08-20T01:59:49.756Z,17.54
2018-08-20T02:00:49.772Z,17.57
2018-08-20T02:01:49.732Z,17.53
2018-08-20T02:02:49.750Z,17.49
2018-08-20T02:03:49.715Z,17.46
2018-08-20T02:04:49.696Z,17.42
2018-08-20T02:05:49.692Z,17.53
2018-08-20T02:06:49.668Z,17.42
2018-08-20T02:07:49.697Z,17.39
2018-08-20T02:08:49.648Z,17.37
2018-08-20T02:09:49.629Z,17.42
2018-08-20T02:10:49.622Z,17.41
2018-08-20T02:11:49.616Z,17.47
2018-08-20T02:12:49.633Z,17.38
2018-08-20T02:13:49.596Z,17.39
2018-08-20T02:14:49.589Z,17.38
2018-08-20T02:15:49.564Z,17.37
2018-08-20T02:16:49.564Z,17.34
2018-08-20T02:17:49.566Z,17.37
2018-08-20T02:18:49.530Z,17.38
2018-08-20T02:19:49.524Z,17.37
2018-08-20T02:20:49.510Z,17.39
2018-08-20T02:21:49.498Z,17.35
2018-08-20T02:22:49.534Z,17.34
2018-08-20T02:23:49.475Z,17.32
2018-08-20T02:24:49.460Z,17.37
2018-08-20T02:25:49.450Z,17.30
2018-08-20T02:26:49.442Z,17.30
2018-08-20T02:27:49.464Z,17.20
2018-08-20T02:28:49.426Z,17.22
2018-08-20T02:29:49.398Z,17.16
2018-08-20T02:30:49.398Z,17.30
2018-08-20T02:31:49.387Z,17.30
2018-08-20T02:32:49.399Z,17.30
2018-08-20T02:33:49.364Z,17.31
2018-08-20T02:34:49.392Z,17.28
2018-08-20T02:35:49.340Z,17.16
2018-08-20T02:36:49.320Z,17.31
2018-08-20T02:37:49.322Z,17.19
2018-08-20T02:38:49.312Z,17.24
2018-08-20T02:39:49.338Z,17.22
2018-08-20T02:40:49.290Z,17.14
2018-08-20T02:41:49.281Z,17.17
2018-08-20T02:42:49.268Z,17.20
2018-08-20T02:43:49.257Z,17.20
2018-08-20T02:44:49.278Z,17.17
2018-08-20T02:45:49.236Z,17.22
2018-08-20T02:46:49.220Z,17.16
2018-08-20T02:47:49.210Z,17.27
2018-08-20T02:48:49.195Z,17.30
2018-08-20T02:49:49.232Z,17.16
2018-08-20T02:50:49.180Z,17.24
2018-08-20T02:51:49.170Z,17.17
2018-08-20T02:52:49.157Z,17.20
2018-08-20T02:53:49.153Z,17.31
2018-08-20T02:54:49.172Z,17.17
2018-08-20T02:55:49.115Z,17.22
2018-08-20T02:56:49.118Z,17.22
2018-08-20T02:57:49.094Z,17.23
2018-08-20T02:58:49.081Z,17.20
2018-08-20T02:59:49.105Z,17.20
2018-08-20T03:00:49.092Z,17.28
2018-08-20T03:01:49.046Z,17.32
2018-08-20T03:02:49.041Z,17.31
2018-08-20T03:03:49.046Z,17.30
2018-08-20T03:04:49.023Z,17.38
2018-08-20T03:05:49.032Z,17.37
2018-08-20T03:06:49.000Z,17.41
2018-08-20T03:07:48.985Z,17.41
2018-08-20T03:08:48.980Z,17.41
2018-08-20T03:09:48.949Z,17.47
2018-08-20T03:10:48.968Z,17.57
2018-08-20T03:11:48.928Z,17.50
2018-08-20T03:12:48.912Z,17.57
2018-08-20T03:13:48.944Z,17.68
2018-08-20T03:14:48.897Z,17.71
2018-08-20T03:15:48.883Z,17.75
2018-08-20T03:16:48.874Z,17.78
2018-08-20T03:17:48.861Z,17.84
2018-08-20T03:18:48.880Z,17.79
2018-08-20T03:19:48.847Z,17.86
2018-08-20T03:20:48.822Z,17.95
2018-08-20T03:21:48.816Z,17.91
2018-08-20T03:22:48.802Z,17.97
2018-08-20T03:23:48.830Z,17.98
2018-08-20T03:24:48.784Z,18.05
2018-08-20T03:25:48.776Z,18.15
2018-08-20T03:26:48.760Z,18.19
2018-08-20T03:27:48.754Z,18.12
2018-08-20T03:28:48.810Z,18.15
2018-08-20T03:29:48.719Z,18.19
2018-08-20T03:30:48.711Z,18.23
2018-08-20T03:31:48.706Z,18.13
2018-08-20T03:32:48.693Z,18.24
2018-08-20T03:33:48.727Z,18.27
2018-08-20T03:34:48.671Z,18.28
2018-08-20T03:35:48.659Z,18.34
2018-08-20T03:36:48.650Z,18.30
2018-08-20T03:37:48.647Z,18.30
2018-08-20T03:38:48.666Z,18.30
2018-08-20T03:39:48.616Z,18.34
2018-08-20T03:40:48.639Z,18.34
2018-08-20T03:41:48.596Z,18.39
2018-08-20T03:42:48.590Z,18.45
2018-08-20T03:43:48.611Z,18.42
2018-08-20T03:44:48.568Z,18.41
2018-08-20T03:45:48.614Z,18.34
2018-08-20T03:46:48.539Z,18.43
2018-08-20T03:47:48.535Z,18.45
2018-08-20T03:48:48.517Z,18.39
2018-08-20T03:49:48.513Z,18.48
2018-08-20T03:50:48.537Z,18.51
2018-08-20T03:51:48.479Z,18.46
2018-08-20T03:52:48.478Z,18.46
2018-08-20T03:53:48.458Z,18.51
2018-08-20T03:54:48.450Z,18.46
2018-08-20T03:55:48.480Z,18.43
2018-08-20T03:56:48.431Z,18.48
2018-08-20T03:57:48.431Z,18.43
2018-08-20T03:58:48.403Z,18.49
2018-08-20T03:59:48.401Z,18.41
2018-08-20T04:00:48.414Z,18.39
2018-08-20T04:01:48.372Z,18.51
2018-08-20T04:02:48.362Z,18.57
2018-08-20T04:03:48.345Z,18.46
2018-08-20T04:04:48.400Z,18.46
2018-08-20T04:05:48.361Z,18.52
2018-08-20T04:06:48.316Z,18.53
2018-08-20T04:07:48.306Z,18.42
2018-08-20T04:08:48.291Z,18.43
2018-08-20T04:09:48.282Z,18.42
2018-08-20T04:10:48.337Z,18.43
2018-08-20T04:11:48.258Z,18.49
2018-08-20T04:12:48.235Z,18.46
2018-08-20T04:13:48.229Z,18.43
2018-08-20T04:14:48.236Z,18.48
2018-08-20T04:15:48.239Z,18.45
2018-08-20T04:16:48.196Z,18.41
2018-08-20T04:17:48.187Z,18.48
2018-08-20T04:18:48.170Z,18.48
2018-08-20T04:19:48.160Z,18.48
2018-08-20T04:20:48.183Z,18.43
2018-08-20T04:21:48.166Z,18.57
2018-08-20T04:22:48.123Z,18.53
2018-08-20T04:23:48.106Z,18.52
2018-08-20T04:24:48.104Z,18.46
2018-08-20T04:25:48.090Z,18.49
2018-08-20T04:26:48.121Z,18.52
2018-08-20T04:27:48.068Z,18.53
2018-08-20T04:28:48.061Z,18.66
2018-08-20T04:29:48.042Z,18.58
2018-08-20T04:30:48.030Z,18.63
2018-08-20T04:31:48.072Z,18.63
2018-08-20T04:32:48.009Z,18.60
2018-08-20T04:33:48.004Z,18.61
2018-08-20T04:34:47.986Z,18.60
2018-08-20T04:35:47.972Z,18.66
2018-08-20T04:36:48.011Z,18.67
2018-08-20T04:37:47.952Z,18.67
2018-08-20T04:38:47.948Z,18.74
2018-08-20T04:39:47.926Z,18.66
2018-08-20T04:40:47.922Z,18.70
2018-08-20T04:41:47.942Z,18.70
2018-08-20T04:42:47.898Z,18.71
2018-08-20T04:43:47.895Z,18.79
2018-08-20T04:44:47.878Z,18.85
2018-08-20T04:45:47.870Z,18.85
2018-08-20T04:46:47.908Z,18.89
2018-08-20T04:47:47.850Z,18.91
2018-08-20T04:48:47.852Z,18.85
2018-08-20T04:49:47.909Z,18.89
2018-08-20T04:50:47.860Z,18.85
2018-08-20T04:51:47.832Z,18.85
2018-08-20T04:52:47.817Z,18.85
2018-08-20T04:53:47.780Z,18.89
2018-08-20T04:54:47.764Z,18.81
2018-08-20T04:55:47.758Z,18.85
2018-08-20T04:56:47.752Z,18.86
2018-08-20T04:57:47.782Z,18.92
2018-08-20T04:58:47.718Z,18.94
2018-08-20T04:59:47.701Z,18.98
2018-08-20T05:00:47.730Z,19.00
2018-08-20T05:01:47.680Z,19.04
2018-08-20T05:02:47.711Z,19.01
2018-08-20T05:03:47.661Z,18.98
2018-08-20T05:04:47.645Z,19.07
2018-08-20T05:05:47.641Z,19.15
2018-08-20T05:06:47.621Z,19.15
2018-08-20T05:07:47.644Z,19.19
2018-08-20T05:08:47.603Z,19.19
2018-08-20T05:09:47.590Z,19.22
2018-08-20T05:10:47.610Z,19.17
2018-08-20T05:11:47.561Z,19.23
2018-08-20T05:12:47.565Z,19.26
2018-08-20T05:13:47.542Z,19.24
2018-08-20T05:14:47.572Z,19.26
2018-08-20T05:15:47.523Z,19.27
2018-08-20T05:16:47.559Z,19.37
2018-08-20T05:17:47.511Z,19.30
2018-08-20T05:18:47.553Z,19.27
2018-08-20T05:19:47.514Z,19.34
2018-08-20T05:20:47.474Z,19.32
2018-08-20T05:21:47.488Z,19.38
2018-08-20T05:22:47.458Z,19.48
2018-08-20T05:23:47.436Z,19.55
2018-08-20T05:24:47.428Z,19.45
2018-08-20T05:25:47.448Z,19.52
2018-08-20T05:26:47.466Z,19.53
2018-08-20T05:27:47.398Z,19.55
2018-08-20T05:28:47.383Z,19.52
2018-08-20T05:29:47.378Z,19.59
2018-08-20T05:30:47.362Z,19.56
2018-08-20T05:31:47.388Z,19.57
2018-08-20T05:32:47.342Z,19.56
2018-08-20T05:33:47.326Z,19.49
2018-08-20T05:34:47.314Z,19.56
2018-08-20T05:35:47.354Z,19.64
2018-08-20T05:36:47.308Z,19.57
2018-08-20T05:37:47.278Z,19.52
2018-08-20T05:38:47.276Z,19.53
2018-08-20T05:39:47.264Z,19.63
2018-08-20T05:40:47.290Z,19.64
2018-08-20T05:41:47.263Z,19.67
2018-08-20T05:42:47.222Z,19.70
2018-08-20T05:43:47.212Z,19.66
2018-08-20T05:44:47.203Z,19.74
2018-08-20T05:45:47.222Z,19.72
2018-08-20T05:46:47.172Z,19.75
2018-08-20T05:47:47.155Z,19.82
2018-08-20T05:48:47.152Z,19.77
2018-08-20T05:49:47.132Z,19.70
2018-08-20T05:50:47.159Z,19.85
2018-08-20T05:51:47.152Z,19.82
2018-08-20T05:52:47.110Z,19.81
2018-08-20T05:53:47.090Z,19.85
2018-08-20T05:54:47.076Z,19.77
2018-08-20T05:55:47.063Z,19.77
2018-08-20T05:56:47.107Z,19.62
2018-08-20T05:57:47.049Z,19.63
2018-08-20T05:58:47.040Z,19.57
2018-08-20T05:59:47.022Z,19.59
2018-08-20T06:00:47.010Z,19.48
2018-08-20T06:01:47.042Z,19.45
2018-08-20T06:02:46.989Z,19.47
2018-08-20T06:03:46.985Z,19.38
2018-08-20T06:04:46.961Z,19.38
2018-08-20T06:05:46.955Z,19.45
2018-08-20T06:06:46.985Z,19.47
2018-08-20T06:07:46.986Z,19.32
2018-08-20T06:08:46.913Z,19.35
2018-08-20T06:09:46.913Z,19.34
2018-08-20T06:10:46.895Z,19.30
2018-08-20T06:11:46.929Z,19.29
2018-08-20T06:12:46.874Z,19.23
2018-08-20T06:13:46.861Z,19.29
2018-08-20T06:14:46.880Z,19.27
2018-08-20T06:15:46.841Z,19.22
2018-08-20T06:16:46.869Z,19.17
2018-08-20T06:17:46.814Z,19.19
2018-08-20T06:18:46.814Z,19.22
2018-08-20T06:19:46.810Z,19.16
2018-08-20T06:20:46.788Z,19.17
2018-08-20T06:21:46.831Z,19.16
2018-08-20T06:22:46.768Z,19.07
2018-08-20T06:23:46.760Z,19.19
2018-08-20T06:24:46.753Z,19.09
2018-08-20T06:25:46.740Z,19.11
2018-08-20T06:26:46.760Z,19.08
2018-08-20T06:27:46.747Z,19.00
2018-08-20T06:28:46.706Z,18.96
2018-08-20T06:29:46.686Z,18.82
2018-08-20T06:30:46.678Z,18.85
2018-08-20T06:31:46.672Z,18.88
2018-08-20T06:32:46.690Z,18.83
2018-08-20T06:33:46.645Z,18.81
2018-08-20T06:34:46.633Z,18.76
2018-08-20T06:35:46.676Z,18.70
2018-08-20T06:36:46.623Z,18.70
2018-08-20T06:37:46.673Z,18.73
2018-08-20T06:38:46.603Z,18.86
2018-08-20T06:39:46.599Z,18.86
2018-08-20T06:40:46.574Z,18.91
2018-08-20T06:41:46.560Z,18.98
2018-08-20T06:42:46.591Z,19.05
2018-08-20T06:43:46.539Z,19.08
2018-08-20T06:44:46.528Z,19.15
2018-08-20T06:45:46.543Z,19.20
2018-08-20T06:46:46.501Z,19.07
2018-08-20T06:47:46.552Z,19.11
2018-08-20T06:48:46.513Z,19.20
2018-08-20T06:49:46.462Z,19.22
2018-08-20T06:50:46.472Z,19.24
2018-08-20T06:51:46.432Z,19.24
2018-08-20T06:52:46.480Z,19.24
2018-08-20T06:53:46.432Z,19.26
2018-08-20T06:54:46.406Z,19.29
2018-08-20T06:55:46.394Z,19.30
2018-08-20T06:56:46.387Z,19.42
2018-08-20T06:57:46.432Z,19.45
2018-08-20T06:58:46.364Z,19.48
2018-08-20T06:59:46.348Z,19.63
2018-08-20T07:00:46.410Z,19.66
2018-08-20T07:01:46.334Z,19.70
2018-08-20T07:02:46.352Z,19.57
2018-08-20T07:03:46.296Z,19.55
2018-08-20T07:04:46.318Z,19.55
2018-08-20T07:05:46.274Z,19.49
2018-08-20T07:06:46.265Z,19.53
2018-08-20T07:07:46.258Z,19.55
2018-08-20T07:08:46.236Z,19.66
2018-08-20T07:09:46.261Z,20.02
2018-08-20T07:10:46.224Z,20.52
2018-08-20T07:11:46.220Z,20.55
2018-08-20T07:12:46.228Z,20.80
2018-08-20T07:13:46.178Z,20.73
2018-08-20T07:14:46.170Z,21.04
2018-08-20T07:15:46.162Z,21.66
2018-08-20T07:16:46.252Z,21.85
2018-08-20T07:17:46.302Z,21.96
2018-08-20T07:18:53.744Z,22.08
2018-08-20T07:19:46.192Z,22.25
2018-08-20T07:20:46.114Z,22.12
2018-08-20T07:21:54.793Z,22.21
2018-08-20T07:22:46.105Z,21.80
2018-08-20T07:23:46.147Z,21.44
2018-08-20T07:24:46.125Z,21.47
2018-08-20T07:25:46.060Z,21.51
2018-08-20T07:26:46.058Z,21.50
2018-08-20T07:27:46.080Z,21.26
2018-08-20T07:28:46.060Z,21.11
2018-08-20T07:29:46.016Z,21.23
2018-08-20T07:30:46.018Z,21.25
2018-08-20T07:31:45.985Z,21.20
2018-08-20T07:32:45.995Z,20.96
2018-08-20T07:33:45.996Z,20.89
2018-08-20T07:34:45.954Z,20.78
2018-08-20T07:35:45.938Z,20.56
2018-08-20T07:36:45.932Z,20.50
2018-08-20T07:37:45.960Z,20.34
2018-08-20T07:38:45.920Z,20.27
2018-08-20T07:39:54.822Z,20.29
2018-08-20T07:40:45.890Z,20.36
2018-08-20T07:41:45.879Z,20.26
2018-08-20T07:42:45.938Z,20.44
2018-08-20T07:43:45.863Z,20.34
2018-08-20T07:44:45.853Z,20.48
2018-08-20T07:45:45.858Z,20.55
2018-08-20T07:46:45.876Z,20.63
2018-08-20T07:47:45.861Z,20.67
2018-08-20T07:48:53.350Z,20.71
2018-08-20T07:49:45.781Z,20.90
2018-08-20T07:50:45.879Z,20.89
2018-08-20T07:51:53.405Z,20.92
2018-08-20T07:52:45.815Z,21.03
2018-08-20T07:53:45.730Z,21.08
2018-08-20T07:54:45.821Z,21.28
2018-08-20T07:55:45.862Z,21.29
2018-08-20T07:56:45.707Z,21.41
2018-08-20T07:57:53.963Z,21.45
2018-08-20T07:58:45.719Z,21.56
2018-08-20T07:59:45.671Z,21.63
2018-08-20T08:00:54.996Z,21.85
2018-08-20T08:01:45.660Z,21.92
2018-08-20T08:02:45.634Z,21.72
2018-08-20T08:03:55.991Z,21.68
2018-08-20T08:04:45.606Z,21.69
2018-08-20T08:05:45.629Z,21.63
2018-08-20T08:06:53.525Z,21.59
2018-08-20T08:07:45.596Z,21.83
2018-08-20T08:08:45.642Z,21.91
2018-08-20T08:09:55.594Z,21.94
2018-08-20T08:10:45.540Z,21.92
2018-08-20T08:11:45.563Z,21.94
2018-08-20T08:12:53.112Z,21.88
2018-08-20T08:13:45.545Z,21.83
2018-08-20T08:14:45.513Z,21.65
2018-08-20T08:15:54.658Z,21.60
2018-08-20T08:16:45.482Z,21.58
2018-08-20T08:17:45.464Z,21.48
2018-08-20T08:18:53.166Z,21.44
2018-08-20T08:19:45.462Z,21.38
2018-08-20T08:20:45.442Z,21.41
2018-08-20T08:21:54.722Z,21.43
2018-08-20T08:22:45.420Z,21.44
2018-08-20T08:23:45.400Z,21.50
2018-08-20T08:24:45.407Z,21.60
2018-08-20T08:25:45.378Z,21.59
2018-08-20T08:26:45.423Z,21.59
2018-08-20T08:27:53.227Z,21.50
2018-08-20T08:28:45.340Z,21.43
2018-08-20T08:29:45.317Z,21.47
2018-08-20T08:30:53.271Z,21.40
2018-08-20T08:31:45.341Z,21.45
2018-08-20T08:32:45.285Z,21.43
2018-08-20T08:33:52.803Z,21.44
2018-08-20T08:34:45.268Z,21.43
2018-08-20T08:35:45.251Z,21.48
2018-08-20T08:36:55.375Z,21.45
2018-08-20T08:37:45.250Z,21.48
2018-08-20T08:38:45.229Z,21.56
2018-08-20T08:39:54.412Z,21.62
2018-08-20T08:40:45.210Z,21.56
2018-08-20T08:41:45.280Z,21.69
2018-08-20T08:42:54.944Z,21.80
2018-08-20T08:43:45.180Z,22.06
2018-08-20T08:44:45.200Z,22.22
2018-08-20T08:45:45.166Z,22.34
2018-08-20T08:46:45.147Z,22.36
2018-08-20T08:47:45.173Z,22.40
2018-08-20T08:48:53.966Z,22.28
2018-08-20T08:49:45.129Z,22.30
2018-08-20T08:50:45.084Z,22.28
2018-08-20T08:51:55.003Z,22.23
2018-08-20T08:52:45.137Z,22.22
2018-08-20T08:53:45.099Z,22.06
2018-08-20T08:54:45.075Z,21.96
2018-08-20T08:55:45.028Z,21.84
2018-08-20T08:56:45.016Z,21.66
2018-08-20T08:57:54.076Z,21.53
2018-08-20T08:58:45.003Z,21.44
2018-08-20T08:59:44.985Z,21.25
2018-08-20T09:00:45.129Z,21.25
2018-08-20T09:01:44.960Z,21.17
2018-08-20T09:02:44.955Z,21.05
2018-08-20T09:03:54.138Z,20.98
2018-08-20T09:04:44.937Z,21.00
2018-08-20T09:05:44.950Z,20.90
2018-08-20T09:06:44.927Z,20.85
2018-08-20T09:07:44.902Z,20.73
2018-08-20T09:08:44.891Z,20.71
2018-08-20T09:09:44.889Z,20.83
2018-08-20T09:10:44.895Z,21.01
2018-08-20T09:11:44.853Z,21.10
2018-08-20T09:12:44.850Z,21.26
2018-08-20T09:13:44.889Z,21.23
2018-08-20T09:14:44.854Z,21.40
2018-08-20T09:15:44.855Z,21.43
2018-08-20T09:16:44.802Z,21.41
2018-08-20T09:17:44.793Z,21.50
2018-08-20T09:18:44.794Z,21.56
2018-08-20T09:19:44.784Z,21.60
2018-08-20T09:20:44.863Z,21.60
2018-08-20T09:21:44.762Z,21.70
2018-08-20T09:22:44.738Z,21.69
2018-08-20T09:23:44.740Z,21.72
2018-08-20T09:24:44.724Z,21.78
2018-08-20T09:25:44.750Z,21.58
2018-08-20T09:26:44.718Z,21.53
2018-08-20T09:27:44.673Z,21.53
2018-08-20T09:28:44.680Z,21.50
2018-08-20T09:29:44.676Z,21.41
2018-08-20T09:30:44.688Z,21.43
2018-08-20T09:31:44.687Z,21.40
2018-08-20T09:32:44.618Z,21.33
2018-08-20T09:33:44.638Z,21.44
2018-08-20T09:34:44.604Z,21.50
2018-08-20T09:35:44.614Z,21.53
2018-08-20T09:36:44.634Z,21.56
2018-08-20T09:37:44.578Z,21.63
2018-08-20T09:38:44.558Z,21.68
2018-08-20T09:39:44.546Z,21.84
2018-08-20T09:40:44.540Z,21.97
2018-08-20T09:41:44.553Z,21.94
2018-08-20T09:42:53.122Z,21.96
2018-08-20T09:43:44.525Z,21.97
2018-08-20T09:44:44.487Z,22.01
2018-08-20T09:45:44.482Z,22.12
2018-08-20T09:46:44.504Z,22.10
2018-08-20T09:47:44.447Z,22.06
2018-08-20T09:48:53.164Z,22.07
2018-08-20T09:49:44.424Z,22.10
2018-08-20T09:50:44.416Z,22.04
2018-08-20T09:51:53.714Z,22.07
2018-08-20T09:52:44.395Z,22.01
2018-08-20T09:53:44.381Z,21.92
2018-08-20T09:54:52.222Z,21.92
2018-08-20T09:55:44.365Z,21.99
2018-08-20T09:56:44.346Z,21.83
2018-08-20T09:57:53.793Z,21.83
2018-08-20T09:58:44.321Z,21.96
2018-08-20T09:59:44.314Z,21.88
2018-08-20T10:00:44.304Z,21.81
2018-08-20T10:01:44.298Z,21.75
2018-08-20T10:02:44.295Z,21.70
2018-08-20T10:03:54.325Z,21.60
2018-08-20T10:04:44.254Z,21.62
2018-08-20T10:05:44.256Z,21.44
2018-08-20T10:06:44.246Z,21.38
2018-08-20T10:07:44.248Z,21.20
2018-08-20T10:08:44.278Z,21.23
2018-08-20T10:09:51.844Z,21.30
2018-08-20T10:10:44.262Z,21.30
2018-08-20T10:11:44.189Z,21.38
2018-08-20T10:12:53.410Z,21.32
2018-08-20T10:13:44.200Z,21.33
2018-08-20T10:14:44.148Z,21.38
2018-08-20T10:15:51.920Z,21.43
2018-08-20T10:16:44.118Z,21.54
2018-08-20T10:17:44.115Z,21.62
2018-08-20T10:18:53.483Z,21.75
2018-08-20T10:19:44.656Z,21.83
2018-08-20T10:20:44.086Z,21.97
2018-08-20T10:21:53.512Z,21.92
2018-08-20T10:22:44.056Z,21.85
2018-08-20T10:23:44.073Z,21.80
2018-08-20T10:24:44.148Z,21.60
2018-08-20T10:25:45.358Z,21.50
2018-08-20T10:26:44.012Z,21.30
2018-08-20T10:28:00.276Z,21.23
2018-08-20T10:28:47.540Z,21.15
2018-08-20T10:29:43.978Z,21.04
2018-08-20T10:30:51.651Z,20.90
2018-08-20T10:31:43.964Z,20.90
2018-08-20T10:32:43.969Z,20.83
2018-08-20T10:33:58.709Z,20.83
2018-08-20T10:34:44.376Z,20.78
2018-08-20T10:35:44.123Z,20.85
2018-08-20T10:36:56.186Z,20.95
2018-08-20T10:37:48.679Z,21.14
2018-08-20T10:38:43.927Z,21.35
2018-08-20T10:39:47.556Z,21.47
2018-08-20T10:41:13.311Z,21.81
2018-08-20T10:41:43.846Z,21.83
2018-08-20T10:42:43.832Z,21.78
2018-08-20T10:43:43.872Z,21.80
2018-08-20T10:44:43.835Z,21.74
2018-08-20T10:45:43.809Z,21.75
2018-08-20T10:46:43.870Z,21.85
2018-08-20T10:47:44.175Z,21.94
2018-08-20T10:48:44.416Z,21.88
2018-08-20T10:49:43.822Z,22.07
2018-08-20T10:50:43.786Z,22.38
2018-08-20T10:51:43.784Z,22.49
2018-08-20T10:52:43.707Z,22.56
2018-08-20T10:53:43.697Z,22.67
2018-08-20T10:54:43.682Z,22.68
2018-08-20T10:55:43.670Z,22.84
2018-08-20T10:56:43.700Z,22.84
2018-08-20T10:57:43.668Z,22.74
2018-08-20T10:58:43.649Z,22.77
2018-08-20T10:59:43.680Z,22.71
2018-08-20T11:00:43.628Z,22.68
2018-08-20T11:01:43.616Z,22.81
2018-08-20T11:02:43.652Z,22.89
2018-08-20T11:03:43.586Z,22.84
2018-08-20T11:04:43.588Z,22.98
2018-08-20T11:05:43.571Z,22.96
2018-08-20T11:06:51.164Z,22.98
2018-08-20T11:07:43.584Z,22.98
2018-08-20T11:08:43.542Z,23.06
2018-08-20T11:09:51.216Z,23.11
2018-08-20T11:10:43.543Z,23.20
2018-08-20T11:11:43.557Z,23.74
2018-08-20T11:12:43.497Z,24.53
2018-08-20T11:13:43.479Z,24.46
2018-08-20T11:14:43.484Z,24.21
2018-08-20T11:15:51.240Z,23.99
2018-08-20T11:16:43.470Z,24.03
2018-08-20T11:17:43.451Z,24.06
2018-08-20T11:18:51.347Z,24.06
2018-08-20T11:19:43.411Z,24.04
2018-08-20T11:20:43.457Z,23.81
2018-08-20T11:21:51.305Z,23.66
2018-08-20T11:22:43.431Z,23.47
2018-08-20T11:23:43.403Z,23.25
2018-08-20T11:24:43.368Z,23.17
2018-08-20T11:25:43.348Z,23.13
2018-08-20T11:26:43.340Z,23.16
2018-08-20T11:27:52.357Z,23.14
2018-08-20T11:28:43.353Z,23.17
2018-08-20T11:29:43.307Z,23.08
2018-08-20T11:30:50.895Z,23.21
2018-08-20T11:31:43.276Z,23.59
2018-08-20T11:32:43.281Z,24.13
2018-08-20T11:33:52.448Z,25.85
2018-08-20T11:34:43.276Z,27.35
2018-08-20T11:35:43.237Z,27.85
2018-08-20T11:36:56.513Z,27.71
2018-08-20T11:37:43.234Z,27.19
2018-08-20T11:38:43.265Z,26.81
2018-08-20T11:39:43.185Z,25.86
2018-08-20T11:40:43.178Z,25.24
2018-08-20T11:41:43.167Z,24.65
2018-08-20T11:42:43.151Z,24.44
2018-08-20T11:43:43.179Z,24.40
2018-08-20T11:44:43.125Z,24.71
2018-08-20T11:45:51.009Z,24.75
2018-08-20T11:46:43.140Z,24.66
2018-08-20T11:47:43.092Z,24.51
2018-08-20T11:48:56.599Z,24.18
2018-08-20T11:49:43.072Z,24.07
2018-08-20T11:50:43.076Z,23.88
2018-08-20T11:51:52.196Z,23.92
2018-08-20T11:52:43.056Z,24.00
2018-08-20T11:53:43.057Z,24.36
2018-08-20T11:54:43.035Z,24.47
2018-08-20T11:55:43.007Z,24.46
2018-08-20T11:56:43.035Z,24.56
2018-08-20T11:57:42.999Z,24.65
2018-08-20T11:58:42.973Z,24.74
2018-08-20T11:59:42.964Z,25.01
2018-08-20T12:00:50.667Z,25.07
2018-08-20T12:01:42.976Z,24.97
2018-08-20T12:02:42.942Z,24.71
2018-08-20T12:03:51.217Z,24.41
2018-08-20T12:04:42.942Z,24.03
2018-08-20T12:05:42.905Z,23.74
2018-08-20T12:06:53.249Z,23.59
2018-08-20T12:07:42.907Z,23.28
2018-08-20T12:08:42.865Z,23.02
2018-08-20T12:09:52.307Z,22.98
2018-08-20T12:10:42.841Z,22.83
2018-08-20T12:11:42.819Z,22.76
2018-08-20T12:12:42.853Z,22.58
2018-08-20T12:13:42.801Z,22.56
2018-08-20T12:14:42.784Z,22.55
2018-08-20T12:15:52.342Z,22.67
2018-08-20T12:16:42.771Z,22.67
2018-08-20T12:17:42.833Z,22.55
2018-08-20T12:18:50.320Z,22.49
2018-08-20T12:19:42.771Z,22.21
2018-08-20T12:20:42.719Z,22.19
2018-08-20T12:21:51.888Z,22.25
2018-08-20T12:22:42.743Z,22.46
2018-08-20T12:23:42.693Z,22.91
2018-08-20T12:24:42.733Z,23.28
2018-08-20T12:25:42.673Z,23.42
2018-08-20T12:26:42.706Z,23.26
2018-08-20T12:27:51.402Z,23.21
2018-08-20T12:28:42.637Z,23.42
2018-08-20T12:29:42.634Z,23.56
2018-08-20T12:30:42.647Z,23.67
2018-08-20T12:31:42.647Z,23.55
2018-08-20T12:32:42.621Z,23.59
2018-08-20T12:33:50.436Z,23.66
2018-08-20T12:34:42.574Z,24.26
2018-08-20T12:35:42.564Z,25.12
2018-08-20T12:36:51.464Z,26.23
2018-08-20T12:37:42.584Z,25.70
2018-08-20T12:38:42.547Z,25.58
2018-08-20T12:39:50.568Z,25.30
2018-08-20T12:40:42.556Z,25.15
2018-08-20T12:41:42.528Z,25.21
2018-08-20T12:42:50.556Z,25.12
2018-08-20T12:43:42.481Z,24.93
2018-08-20T12:44:42.489Z,24.48
2018-08-20T12:45:51.060Z,24.04
2018-08-20T12:46:42.428Z,23.81
2018-08-20T12:47:42.424Z,23.62
2018-08-20T12:48:51.628Z,23.39
2018-08-20T12:49:42.411Z,23.17
2018-08-20T12:50:42.386Z,22.86
2018-08-20T12:51:50.125Z,22.73
2018-08-20T12:52:42.357Z,22.71